sensor_id;sensor_type;location;lat;lon;timestamp;pressure;altitude;pressure_sealevel;temperature;humidity
5872;BME280;2962;51.312;7.378;2023-04-20T00:00:26;97779.00;;;4.76;100.00
5872;BME280;2962;51.312;7.378;2023-04-20T00:02:51;97774.56;;;4.71;100.00
5872;BME280;2962;51.312;7.378;2023-04-20T00:05:17;97762.16;;;4.79;100.00
5872;BME280;2962;51.312;7.378;2023-04-20T00:07:43;97756.47;;;4.72;100.00
5872;BME280;2962;51.312;7.378;2023-04-20T00:10:08;97751.38;;;4.79;100.00
5872;BME280;2962;51.312;7.378;2023-04-20T00:12:34;97764.06;;;4.78;100.00
5872;BME280;2962;51.312;7.378;2023-04-20T00:15:00;97758.53;;;4.75;100.00
5872;BME280;2962;51.312;7.378;2023-04-20T00:17:25;97758.19;;;4.76;100.00
5872;BME280;2962;51.312;7.378;2023-04-20T00:19:50;97746.63;;;4.67;100.00
5872;BME280;2962;51.312;7.378;2023-04-20T00:22:16;97747.69;;;4.83;100.00
5872;BME280;2962;51.312;7.378;2023-04-20T00:24:41;97744.84;;;4.88;100.00
5872;BME280;2962;51.312;7.378;2023-04-20T00:27:07;97718.97;;;4.79;100.00
5872;BME280;2962;51.312;7.378;2023-04-20T00:29:32;97724.81;;;4.89;100.00
5872;BME280;2962;51.312;7.378;2023-04-20T00:31:57;97713.09;;;4.85;100.00
5872;BME280;2962;51.312;7.378;2023-04-20T00:34:23;97721.00;;;4.90;100.00
5872;BME280;2962;51.312;7.378;2023-04-20T00:36:48;97708.47;;;4.86;100.00
5872;BME280;2962;51.312;7.378;2023-04-20T00:39:13;97711.47;;;4.93;100.00
5872;BME280;2962;51.312;7.378;2023-04-20T00:41:40;97700.81;;;4.97;100.00
5872;BME280;2962;51.312;7.378;2023-04-20T00:44:06;97701.16;;;4.86;100.00
5872;BME280;2962;51.312;7.378;2023-04-20T00:46:32;97680.84;;;4.80;100.00
5872;BME280;2962;51.312;7.378;2023-04-20T00:48:57;97690.50;;;4.90;100.00
5872;BME280;2962;51.312;7.378;2023-04-20T00:51:23;97685.44;;;4.88;100.00
5872;BME280;2962;51.312;7.378;2023-04-20T00:53:48;97686.88;;;4.86;100.00
5872;BME280;2962;51.312;7.378;2023-04-20T00:56:14;97685.00;;;4.78;100.00
5872;BME280;2962;51.312;7.378;2023-04-20T00:58:44;97664.53;;;4.77;100.00
5872;BME280;2962;51.312;7.378;2023-04-20T01:01:10;97671.50;;;4.78;100.00
5872;BME280;2962;51.312;7.378;2023-04-20T01:03:35;97658.50;;;4.71;100.00
5872;BME280;2962;51.312;7.378;2023-04-20T01:06:01;97665.03;;;4.70;100.00
5872;BME280;2962;51.312;7.378;2023-04-20T01:08:27;97643.69;;;4.48;100.00
5872;BME280;2962;51.312;7.378;2023-04-20T01:10:55;97652.25;;;4.50;100.00
5872;BME280;2962;51.312;7.378;2023-04-20T01:13:20;97659.28;;;4.33;100.00
5872;BME280;2962;51.312;7.378;2023-04-20T01:15:45;97645.22;;;4.19;100.00
5872;BME280;2962;51.312;7.378;2023-04-20T01:18:11;97653.31;;;4.19;100.00
5872;BME280;2962;51.312;7.378;2023-04-20T01:20:36;97649.94;;;4.22;100.00
5872;BME280;2962;51.312;7.378;2023-04-20T01:23:02;97649.00;;;4.27;100.00
5872;BME280;2962;51.312;7.378;2023-04-20T01:25:27;97649.78;;;4.27;100.00
5872;BME280;2962;51.312;7.378;2023-04-20T01:27:53;97644.41;;;4.27;100.00
5872;BME280;2962;51.312;7.378;2023-04-20T01:30:18;97629.78;;;4.28;100.00
5872;BME280;2962;51.312;7.378;2023-04-20T01:32:44;97638.00;;;4.40;100.00
5872;BME280;2962;51.312;7.378;2023-04-20T01:35:09;97638.47;;;4.43;100.00
5872;BME280;2962;51.312;7.378;2023-04-20T01:37:35;97631.63;;;4.45;100.00
5872;BME280;2962;51.312;7.378;2023-04-20T01:40:01;97613.91;;;4.35;100.00
5872;BME280;2962;51.312;7.378;2023-04-20T01:42:26;97610.81;;;4.16;100.00
5872;BME280;2962;51.312;7.378;2023-04-20T01:44:51;97602.53;;;4.21;100.00
5872;BME280;2962;51.312;7.378;2023-04-20T01:47:17;97599.38;;;4.10;100.00
5872;BME280;2962;51.312;7.378;2023-04-20T01:49:42;97595.97;;;3.92;100.00
5872;BME280;2962;51.312;7.378;2023-04-20T01:52:08;97599.75;;;3.91;100.00
5872;BME280;2962;51.312;7.378;2023-04-20T01:54:33;97587.28;;;3.70;100.00
5872;BME280;2962;51.312;7.378;2023-04-20T01:56:58;97596.63;;;3.63;100.00
5872;BME280;2962;51.312;7.378;2023-04-20T01:59:24;97587.59;;;3.68;100.00
5872;BME280;2962;51.312;7.378;2023-04-20T02:01:50;97576.50;;;3.70;100.00
5872;BME280;2962;51.312;7.378;2023-04-20T02:04:15;97578.41;;;3.69;100.00
5872;BME280;2962;51.312;7.378;2023-04-20T02:06:40;97577.75;;;3.81;100.00
5872;BME280;2962;51.312;7.378;2023-04-20T02:09:06;97579.94;;;3.87;100.00
5872;BME280;2962;51.312;7.378;2023-04-20T02:11:33;97568.84;;;3.89;100.00
5872;BME280;2962;51.312;7.378;2023-04-20T02:13:58;97566.47;;;3.87;100.00
5872;BME280;2962;51.312;7.378;2023-04-20T02:16:23;97562.00;;;3.91;100.00
5872;BME280;2962;51.312;7.378;2023-04-20T02:18:49;97559.00;;;3.93;100.00
5872;BME280;2962;51.312;7.378;2023-04-20T02:21:14;97565.19;;;3.94;100.00
5872;BME280;2962;51.312;7.378;2023-04-20T02:23:39;97562.16;;;3.95;100.00
5872;BME280;2962;51.312;7.378;2023-04-20T02:26:05;97553.47;;;3.89;100.00
5872;BME280;2962;51.312;7.378;2023-04-20T02:28:30;97565.94;;;4.03;100.00
5872;BME280;2962;51.312;7.378;2023-04-20T02:30:55;97564.19;;;4.07;100.00
5872;BME280;2962;51.312;7.378;2023-04-20T02:33:20;97549.31;;;4.01;100.00
5872;BME280;2962;51.312;7.378;2023-04-20T02:35:47;97549.31;;;4.01;100.00
5872;BME280;2962;51.312;7.378;2023-04-20T02:38:12;97541.72;;;3.94;100.00
5872;BME280;2962;51.312;7.378;2023-04-20T02:40:37;97550.06;;;4.10;100.00
5872;BME280;2962;51.312;7.378;2023-04-20T02:43:03;97536.91;;;4.08;100.00
5872;BME280;2962;51.312;7.378;2023-04-20T02:45:28;97539.09;;;4.15;100.00
5872;BME280;2962;51.312;7.378;2023-04-20T02:47:55;97534.03;;;4.13;100.00
5872;BME280;2962;51.312;7.378;2023-04-20T02:50:20;97539.56;;;4.17;100.00
5872;BME280;2962;51.312;7.378;2023-04-20T02:52:45;97528.28;;;4.24;100.00
5872;BME280;2962;51.312;7.378;2023-04-20T02:55:10;97529.91;;;4.16;100.00
5872;BME280;2962;51.312;7.378;2023-04-20T02:57:36;97522.25;;;4.18;100.00
5872;BME280;2962;51.312;7.378;2023-04-20T03:00:01;97520.97;;;4.24;100.00
5872;BME280;2962;51.312;7.378;2023-04-20T03:02:27;97514.50;;;4.16;100.00
5872;BME280;2962;51.312;7.378;2023-04-20T03:04:52;97517.16;;;4.25;100.00
5872;BME280;2962;51.312;7.378;2023-04-20T03:07:17;97506.09;;;4.18;100.00
5872;BME280;2962;51.312;7.378;2023-04-20T03:09:43;97516.88;;;4.18;100.00
5872;BME280;2962;51.312;7.378;2023-04-20T03:12:08;97515.00;;;4.10;100.00
5872;BME280;2962;51.312;7.378;2023-04-20T03:14:33;97515.63;;;4.15;100.00
5872;BME280;2962;51.312;7.378;2023-04-20T03:16:58;97509.31;;;4.11;100.00
5872;BME280;2962;51.312;7.378;2023-04-20T03:19:24;97495.69;;;4.08;100.00
5872;BME280;2962;51.312;7.378;2023-04-20T03:21:49;97497.44;;;4.04;100.00
5872;BME280;2962;51.312;7.378;2023-04-20T03:24:15;97505.00;;;4.10;100.00
5872;BME280;2962;51.312;7.378;2023-04-20T03:26:41;97493.13;;;4.11;100.00
5872;BME280;2962;51.312;7.378;2023-04-20T03:29:06;97500.59;;;4.06;100.00
5872;BME280;2962;51.312;7.378;2023-04-20T03:31:31;97504.38;;;4.13;100.00
5872;BME280;2962;51.312;7.378;2023-04-20T03:33:57;97497.91;;;4.06;100.00
5872;BME280;2962;51.312;7.378;2023-04-20T03:36:22;97493.94;;;4.03;100.00
5872;BME280;2962;51.312;7.378;2023-04-20T03:38:47;97492.38;;;4.02;100.00
5872;BME280;2962;51.312;7.378;2023-04-20T03:41:13;97491.44;;;3.98;100.00
5872;BME280;2962;51.312;7.378;2023-04-20T03:43:38;97488.53;;;4.03;100.00
5872;BME280;2962;51.312;7.378;2023-04-20T03:46:05;97490.94;;;4.05;100.00
5872;BME280;2962;51.312;7.378;2023-04-20T03:48:31;97486.53;;;4.00;100.00
5872;BME280;2962;51.312;7.378;2023-04-20T03:50:56;97490.31;;;3.99;100.00
5872;BME280;2962;51.312;7.378;2023-04-20T03:53:23;97479.28;;;3.92;100.00
5872;BME280;2962;51.312;7.378;2023-04-20T03:55:48;97473.41;;;3.90;100.00
5872;BME280;2962;51.312;7.378;2023-04-20T03:58:13;97487.75;;;4.03;100.00
5872;BME280;2962;51.312;7.378;2023-04-20T04:00:39;97485.22;;;4.06;100.00
5872;BME280;2962;51.312;7.378;2023-04-20T04:03:05;97487.91;;;4.06;100.00
5872;BME280;2962;51.312;7.378;2023-04-20T04:05:30;97480.94;;;4.05;100.00
5872;BME280;2962;51.312;7.378;2023-04-20T04:07:55;97481.72;;;4.06;100.00
5872;BME280;2962;51.312;7.378;2023-04-20T04:10:20;97484.72;;;4.13;100.00
5872;BME280;2962;51.312;7.378;2023-04-20T04:12:46;97485.84;;;4.12;100.00
5872;BME280;2962;51.312;7.378;2023-04-20T04:15:11;97476.47;;;4.09;100.00
5872;BME280;2962;51.312;7.378;2023-04-20T04:17:37;97475.41;;;4.02;100.00
5872;BME280;2962;51.312;7.378;2023-04-20T04:20:03;97473.84;;;4.01;100.00
5872;BME280;2962;51.312;7.378;2023-04-20T04:22:28;97485.06;;;4.03;100.00
5872;BME280;2962;51.312;7.378;2023-04-20T04:24:53;97478.16;;;3.93;100.00
5872;BME280;2962;51.312;7.378;2023-04-20T04:27:19;97483.53;;;3.93;100.00
5872;BME280;2962;51.312;7.378;2023-04-20T04:29:46;97480.50;;;3.95;100.00
5872;BME280;2962;51.312;7.378;2023-04-20T04:32:14;97477.25;;;4.10;100.00
5872;BME280;2962;51.312;7.378;2023-04-20T04:34:39;97480.31;;;4.00;100.00
5872;BME280;2962;51.312;7.378;2023-04-20T04:37:07;97476.53;;;4.01;100.00
5872;BME280;2962;51.312;7.378;2023-04-20T04:39:33;97478.59;;;4.04;100.00
5872;BME280;2962;51.312;7.378;2023-04-20T04:41:58;97478.44;;;4.00;100.00
5872;BME280;2962;51.312;7.378;2023-04-20T04:44:24;97485.59;;;3.96;100.00
5872;BME280;2962;51.312;7.378;2023-04-20T04:46:50;97464.97;;;3.91;100.00
5872;BME280;2962;51.312;7.378;2023-04-20T04:49:15;97478.44;;;4.00;100.00
5872;BME280;2962;51.312;7.378;2023-04-20T04:51:40;97484.63;;;4.01;100.00
5872;BME280;2962;51.312;7.378;2023-04-20T04:54:05;97477.13;;;4.06;100.00
5872;BME280;2962;51.312;7.378;2023-04-20T04:56:31;97464.63;;;4.02;100.00
5872;BME280;2962;51.312;7.378;2023-04-20T04:58:56;97476.53;;;4.01;100.00
5872;BME280;2962;51.312;7.378;2023-04-20T05:01:21;97478.59;;;4.04;100.00
5872;BME280;2962;51.312;7.378;2023-04-20T05:03:47;97455.66;;;3.89;100.00
5872;BME280;2962;51.312;7.378;2023-04-20T05:06:12;97484.09;;;4.07;100.00
5872;BME280;2962;51.312;7.378;2023-04-20T05:08:37;97475.41;;;4.02;100.00
5872;BME280;2962;51.312;7.378;2023-04-20T05:11:02;97475.06;;;4.03;100.00
5872;BME280;2962;51.312;7.378;2023-04-20T05:13:28;97477.25;;;4.10;100.00
5872;BME280;2962;51.312;7.378;2023-04-20T05:15:53;97443.59;;;3.86;100.00
5872;BME280;2962;51.312;7.378;2023-04-20T05:18:18;97481.38;;;4.07;100.00
5872;BME280;2962;51.312;7.378;2023-04-20T05:20:44;97492.38;;;4.02;100.00
5872;BME280;2962;51.312;7.378;2023-04-20T05:23:09;97464.53;;;3.89;100.00
5872;BME280;2962;51.312;7.378;2023-04-20T05:25:34;97475.66;;;3.79;100.00
5872;BME280;2962;51.312;7.378;2023-04-20T05:28:00;97480.06;;;3.84;100.00
5872;BME280;2962;51.312;7.378;2023-04-20T05:30:25;97490.22;;;3.87;100.00
5872;BME280;2962;51.312;7.378;2023-04-20T05:32:50;97491.53;;;3.72;100.00
5872;BME280;2962;51.312;7.378;2023-04-20T05:35:16;97493.09;;;3.82;100.00
5872;BME280;2962;51.312;7.378;2023-04-20T05:37:41;97487.69;;;3.82;100.00
5872;BME280;2962;51.312;7.378;2023-04-20T05:40:07;97495.81;;;3.73;100.00
5872;BME280;2962;51.312;7.378;2023-04-20T05:42:33;97493.66;;;3.58;100.00
5872;BME280;2962;51.312;7.378;2023-04-20T05:44:58;97493.66;;;3.58;100.00
5872;BME280;2962;51.312;7.378;2023-04-20T05:47:24;97506.00;;;3.59;100.00
5872;BME280;2962;51.312;7.378;2023-04-20T05:49:51;97503.34;;;3.50;100.00
5872;BME280;2962;51.312;7.378;2023-04-20T05:52:16;97496.63;;;3.56;100.00
5872;BME280;2962;51.312;7.378;2023-04-20T05:54:41;97505.56;;;3.39;100.00
5872;BME280;2962;51.312;7.378;2023-04-20T05:57:07;97502.88;;;3.31;100.00
5872;BME280;2962;51.312;7.378;2023-04-20T05:59:32;97517.78;;;3.28;100.00
5872;BME280;2962;51.312;7.378;2023-04-20T06:01:58;97495.75;;;3.26;100.00
5872;BME280;2962;51.312;7.378;2023-04-20T06:04:23;97509.84;;;3.14;100.00
5872;BME280;2962;51.312;7.378;2023-04-20T06:06:48;97512.56;;;3.23;100.00
5872;BME280;2962;51.312;7.378;2023-04-20T06:09:13;97495.91;;;3.21;100.00
5872;BME280;2962;51.312;7.378;2023-04-20T06:11:39;97509.53;;;3.25;100.00
5872;BME280;2962;51.312;7.378;2023-04-20T06:14:05;97512.84;;;3.30;100.00
5872;BME280;2962;51.312;7.378;2023-04-20T06:16:30;97508.56;;;3.29;100.00
5872;BME280;2962;51.312;7.378;2023-04-20T06:18:55;97510.97;;;3.22;100.00
5872;BME280;2962;51.312;7.378;2023-04-20T06:21:21;97513.50;;;3.27;100.00
5872;BME280;2962;51.312;7.378;2023-04-20T06:23:48;97509.88;;;3.23;100.00
5872;BME280;2962;51.312;7.378;2023-04-20T06:26:13;97506.22;;;3.28;100.00
5872;BME280;2962;51.312;7.378;2023-04-20T06:28:39;97495.13;;;3.21;100.00
5872;BME280;2962;51.312;7.378;2023-04-20T06:31:04;97503.53;;;3.19;100.00
5872;BME280;2962;51.312;7.378;2023-04-20T06:33:30;97497.06;;;3.11;100.00
5872;BME280;2962;51.312;7.378;2023-04-20T06:35:55;97503.22;;;3.12;100.00
5872;BME280;2962;51.312;7.378;2023-04-20T06:38:22;97507.03;;;3.20;100.00
5872;BME280;2962;51.312;7.378;2023-04-20T06:40:48;97494.19;;;3.08;100.00
5872;BME280;2962;51.312;7.378;2023-04-20T06:43:13;97491.63;;;3.29;100.00
5872;BME280;2962;51.312;7.378;2023-04-20T06:45:39;97488.47;;;3.35;100.00
5872;BME280;2962;51.312;7.378;2023-04-20T06:48:04;97491.28;;;3.48;100.00
5872;BME280;2962;51.312;7.378;2023-04-20T06:50:30;97500.56;;;3.67;100.00
5872;BME280;2962;51.312;7.378;2023-04-20T06:52:55;97484.63;;;3.54;100.00
5872;BME280;2962;51.312;7.378;2023-04-20T06:55:20;97500.28;;;3.69;100.00
5872;BME280;2962;51.312;7.378;2023-04-20T06:57:46;97500.13;;;3.65;100.00
5872;BME280;2962;51.312;7.378;2023-04-20T07:00:11;97493.88;;;3.82;100.00
5872;BME280;2962;51.312;7.378;2023-04-20T07:02:48;97490.59;;;3.77;100.00
5872;BME280;2962;51.312;7.378;2023-04-20T07:05:14;97483.09;;;3.82;100.00
5872;BME280;2962;51.312;7.378;2023-04-20T07:07:40;97486.22;;;3.93;100.00
5872;BME280;2962;51.312;7.378;2023-04-20T07:10:07;97479.28;;;3.92;100.00
5872;BME280;2962;51.312;7.378;2023-04-20T07:12:37;97491.38;;;4.15;100.00
5872;BME280;2962;51.312;7.378;2023-04-20T07:15:03;97495.94;;;4.15;100.00
5872;BME280;2962;51.312;7.378;2023-04-20T07:17:29;97485.34;;;4.10;100.00
5872;BME280;2962;51.312;7.378;2023-04-20T07:19:54;97479.06;;;3.97;100.00
5872;BME280;2962;51.312;7.378;2023-04-20T07:22:21;97485.72;;;4.00;100.00
5872;BME280;2962;51.312;7.378;2023-04-20T07:24:46;97496.19;;;4.01;100.00
5872;BME280;2962;51.312;7.378;2023-04-20T07:27:11;97480.34;;;3.91;100.00
5872;BME280;2962;51.312;7.378;2023-04-20T07:29:39;97483.38;;;3.89;100.00
5872;BME280;2962;51.312;7.378;2023-04-20T07:32:05;97481.59;;;4.02;100.00
5872;BME280;2962;51.312;7.378;2023-04-20T07:34:30;97488.13;;;3.92;100.00
5872;BME280;2962;51.312;7.378;2023-04-20T07:36:55;97483.69;;;3.88;100.00
5872;BME280;2962;51.312;7.378;2023-04-20T07:39:21;97490.34;;;3.90;100.00
5872;BME280;2962;51.312;7.378;2023-04-20T07:41:46;97484.31;;;3.94;100.00
5872;BME280;2962;51.312;7.378;2023-04-20T07:44:12;97484.31;;;3.94;100.00
5872;BME280;2962;51.312;7.378;2023-04-20T07:46:37;97493.34;;;3.98;100.00
5872;BME280;2962;51.312;7.378;2023-04-20T07:49:03;97498.72;;;3.98;100.00
5872;BME280;2962;51.312;7.378;2023-04-20T07:51:28;97488.31;;;3.87;100.00
5872;BME280;2962;51.312;7.378;2023-04-20T07:53:56;97487.56;;;3.78;100.00
5872;BME280;2962;51.312;7.378;2023-04-20T07:56:21;97491.22;;;3.74;100.00
5872;BME280;2962;51.312;7.378;2023-04-20T07:58:46;97498.66;;;3.68;100.00
5872;BME280;2962;51.312;7.378;2023-04-20T08:01:12;97487.78;;;3.56;100.00
5872;BME280;2962;51.312;7.378;2023-04-20T08:03:37;97497.31;;;3.36;100.00
5872;BME280;2962;51.312;7.378;2023-04-20T08:06:02;97497.03;;;3.29;100.00
5872;BME280;2962;51.312;7.378;2023-04-20T08:08:28;97494.16;;;3.34;100.00
5872;BME280;2962;51.312;7.378;2023-04-20T08:10:55;97498.44;;;3.43;100.00
5872;BME280;2962;51.312;7.378;2023-04-20T08:13:21;97502.88;;;3.22;100.00
5872;BME280;2962;51.312;7.378;2023-04-20T08:15:46;97498.47;;;3.17;100.00
5872;BME280;2962;51.312;7.378;2023-04-20T08:18:12;97493.53;;;3.11;100.00
5872;BME280;2962;51.312;7.378;2023-04-20T08:20:37;97488.03;;;3.16;100.00
5872;BME280;2962;51.312;7.378;2023-04-20T08:23:02;97474.88;;;3.23;100.00
5872;BME280;2962;51.312;7.378;2023-04-20T08:25:27;97478.84;;;4.11;100.00
5872;BME280;2962;51.312;7.378;2023-04-20T08:27:53;97487.31;;;4.81;100.00
5872;BME280;2962;51.312;7.378;2023-04-20T08:30:18;97468.59;;;4.97;100.00
5872;BME280;2962;51.312;7.378;2023-04-20T08:32:43;97485.63;;;5.09;100.00
5872;BME280;2962;51.312;7.378;2023-04-20T08:35:09;97487.03;;;5.16;100.00
5872;BME280;2962;51.312;7.378;2023-04-20T08:37:34;97472.34;;;5.04;100.00
5872;BME280;2962;51.312;7.378;2023-04-20T08:40:01;97476.13;;;5.24;100.00
5872;BME280;2962;51.312;7.378;2023-04-20T08:42:27;97469.88;;;5.45;100.00
5872;BME280;2962;51.312;7.378;2023-04-20T08:44:52;97486.25;;;5.60;100.00
5872;BME280;2962;51.312;7.378;2023-04-20T08:47:19;97483.97;;;5.96;100.00
5872;BME280;2962;51.312;7.378;2023-04-20T08:49:46;97462.78;;;5.85;100.00
5872;BME280;2962;51.312;7.378;2023-04-20T08:52:12;97473.97;;;5.51;100.00
5872;BME280;2962;51.312;7.378;2023-04-20T08:54:38;97468.25;;;5.64;100.00
5872;BME280;2962;51.312;7.378;2023-04-20T08:57:03;97477.59;;;5.55;100.00
5872;BME280;2962;51.312;7.378;2023-04-20T08:59:29;97465.38;;;5.94;100.00
5872;BME280;2962;51.312;7.378;2023-04-20T09:01:55;97473.28;;;6.36;100.00
5872;BME280;2962;51.312;7.378;2023-04-20T09:04:26;97471.50;;;6.93;100.00
5872;BME280;2962;51.312;7.378;2023-04-20T09:06:54;97474.34;;;7.40;100.00
5872;BME280;2962;51.312;7.378;2023-04-20T09:09:22;97468.16;;;7.12;100.00
5872;BME280;2962;51.312;7.378;2023-04-20T09:11:58;97464.06;;;7.62;100.00
5872;BME280;2962;51.312;7.378;2023-04-20T09:14:24;97463.03;;;7.66;100.00
5872;BME280;2962;51.312;7.378;2023-04-20T09:16:51;97462.41;;;7.73;100.00
5872;BME280;2962;51.312;7.378;2023-04-20T09:19:23;97452.09;;;7.78;100.00
5872;BME280;2962;51.312;7.378;2023-04-20T09:21:51;97457.59;;;7.82;100.00
5872;BME280;2962;51.312;7.378;2023-04-20T09:24:21;97458.56;;;7.30;100.00
5872;BME280;2962;51.312;7.378;2023-04-20T09:26:46;97455.91;;;7.46;100.00
5872;BME280;2962;51.312;7.378;2023-04-20T09:29:16;97457.81;;;7.45;100.00
5872;BME280;2962;51.312;7.378;2023-04-20T09:31:42;97450.63;;;7.37;100.00
5872;BME280;2962;51.312;7.378;2023-04-20T09:34:07;97452.63;;;7.24;100.00
5872;BME280;2962;51.312;7.378;2023-04-20T09:36:37;97454.88;;;6.94;100.00
5872;BME280;2962;51.312;7.378;2023-04-20T09:39:05;97465.38;;;6.96;100.00
5872;BME280;2962;51.312;7.378;2023-04-20T09:41:31;97464.47;;;6.92;100.00
5872;BME280;2962;51.312;7.378;2023-04-20T09:43:58;97467.75;;;6.97;100.00
5872;BME280;2962;51.312;7.378;2023-04-20T09:46:26;97455.72;;;7.10;100.00
5872;BME280;2962;51.312;7.378;2023-04-20T09:48:52;97454.13;;;7.38;100.00
5872;BME280;2962;51.312;7.378;2023-04-20T09:51:18;97460.69;;;7.80;100.00
5872;BME280;2962;51.312;7.378;2023-04-20T09:53:44;97452.63;;;8.00;100.00
5872;BME280;2962;51.312;7.378;2023-04-20T09:56:11;97459.94;;;8.47;100.00
5872;BME280;2962;51.312;7.378;2023-04-20T09:58:37;97448.00;;;8.51;100.00
5872;BME280;2962;51.312;7.378;2023-04-20T10:01:02;97454.78;;;8.42;100.00
5872;BME280;2962;51.312;7.378;2023-04-20T10:03:28;97442.22;;;8.53;100.00
5872;BME280;2962;51.312;7.378;2023-04-20T10:06:01;97449.19;;;7.87;100.00
5872;BME280;2962;51.312;7.378;2023-04-20T10:08:47;97457.22;;;7.68;100.00
5872;BME280;2962;51.312;7.378;2023-04-20T10:11:34;97453.13;;;7.58;100.00
5872;BME280;2962;51.312;7.378;2023-04-20T10:14:21;97453.41;;;7.69;100.00
5872;BME280;2962;51.312;7.378;2023-04-20T10:19:48;97451.91;;;8.03;100.00
5872;BME280;2962;51.312;7.378;2023-04-20T10:22:25;97448.13;;;8.23;100.00
5872;BME280;2962;51.312;7.378;2023-04-20T10:24:54;97445.50;;;8.43;100.00
5872;BME280;2962;51.312;7.378;2023-04-20T10:27:21;97450.44;;;7.90;100.00
5872;BME280;2962;51.312;7.378;2023-04-20T10:29:46;97449.19;;;7.55;100.00
5872;BME280;2962;51.312;7.378;2023-04-20T10:32:24;97452.38;;;7.45;100.00
5872;BME280;2962;51.312;7.378;2023-04-20T10:35:04;97435.44;;;7.04;100.00
5872;BME280;2962;51.312;7.378;2023-04-20T10:37:30;97446.50;;;6.99;100.00
5872;BME280;2962;51.312;7.378;2023-04-20T10:39:56;97454.63;;;6.99;100.00
5872;BME280;2962;51.312;7.378;2023-04-20T10:42:22;97442.41;;;7.33;100.00
5872;BME280;2962;51.312;7.378;2023-04-20T10:44:48;97439.50;;;7.70;100.00
5872;BME280;2962;51.312;7.378;2023-04-20T10:47:14;97431.34;;;8.53;100.00
5872;BME280;2962;51.312;7.378;2023-04-20T10:49:40;97438.00;;;9.75;100.00
5872;BME280;2962;51.312;7.378;2023-04-20T10:52:05;97446.72;;;10.57;100.00
5872;BME280;2962;51.312;7.378;2023-04-20T10:54:40;97426.44;;;11.18;100.00
5872;BME280;2962;51.312;7.378;2023-04-20T10:57:05;97435.75;;;11.14;100.00
5872;BME280;2962;51.312;7.378;2023-04-20T10:59:31;97432.09;;;10.69;100.00
5872;BME280;2962;51.312;7.378;2023-04-20T11:01:59;97431.03;;;11.48;100.00
5872;BME280;2962;51.312;7.378;2023-04-20T11:04:29;97422.97;;;11.59;100.00
5872;BME280;2962;51.312;7.378;2023-04-20T11:07:03;97423.44;;;12.09;100.00
5872;BME280;2962;51.312;7.378;2023-04-20T11:09:29;97420.19;;;11.92;100.00
5872;BME280;2962;51.312;7.378;2023-04-20T11:11:58;97415.22;;;11.64;100.00
5872;BME280;2962;51.312;7.378;2023-04-20T11:14:24;97411.25;;;11.95;100.00
5872;BME280;2962;51.312;7.378;2023-04-20T11:16:52;97398.50;;;11.66;100.00
5872;BME280;2962;51.312;7.378;2023-04-20T11:19:22;97419.28;;;11.40;100.00
5872;BME280;2962;51.312;7.378;2023-04-20T11:21:48;97414.41;;;11.19;100.00
5872;BME280;2962;51.312;7.378;2023-04-20T11:24:17;97410.28;;;11.03;100.00
5872;BME280;2962;51.312;7.378;2023-04-20T11:26:44;97407.84;;;12.09;100.00
5872;BME280;2962;51.312;7.378;2023-04-20T11:29:09;97405.78;;;12.51;100.00
5872;BME280;2962;51.312;7.378;2023-04-20T11:31:35;97412.41;;;13.44;100.00
5872;BME280;2962;51.312;7.378;2023-04-20T11:34:01;97401.91;;;14.28;100.00
5872;BME280;2962;51.312;7.378;2023-04-20T11:36:28;97405.13;;;15.29;100.00
5872;BME280;2962;51.312;7.378;2023-04-20T11:38:54;97402.66;;;14.36;100.00
5872;BME280;2962;51.312;7.378;2023-04-20T11:41:22;97391.72;;;13.57;100.00
5872;BME280;2962;51.312;7.378;2023-04-20T11:43:48;97399.47;;;12.43;100.00
5872;BME280;2962;51.312;7.378;2023-04-20T11:46:18;97387.13;;;11.60;100.00
5872;BME280;2962;51.312;7.378;2023-04-20T11:48:45;97409.13;;;10.70;100.00
5872;BME280;2962;51.312;7.378;2023-04-20T11:51:11;97401.91;;;9.78;100.00
5872;BME280;2962;51.312;7.378;2023-04-20T11:53:37;97390.13;;;10.47;100.00
5872;BME280;2962;51.312;7.378;2023-04-20T11:56:04;97404.19;;;11.50;100.00
5872;BME280;2962;51.312;7.378;2023-04-20T11:58:29;97397.19;;;12.52;100.00
5872;BME280;2962;51.312;7.378;2023-04-20T12:00:54;97411.06;;;11.78;100.00
5872;BME280;2962;51.312;7.378;2023-04-20T12:03:20;97413.66;;;10.89;100.00
5872;BME280;2962;51.312;7.378;2023-04-20T12:05:46;97399.69;;;10.94;100.00
5872;BME280;2962;51.312;7.378;2023-04-20T12:08:11;97405.25;;;10.18;100.00
5872;BME280;2962;51.312;7.378;2023-04-20T12:10:36;97402.38;;;10.60;100.00
5872;BME280;2962;51.312;7.378;2023-04-20T12:13:01;97411.78;;;11.71;100.00
5872;BME280;2962;51.312;7.378;2023-04-20T12:15:27;97396.69;;;13.19;100.00
5872;BME280;2962;51.312;7.378;2023-04-20T12:17:52;97401.66;;;12.85;100.00
5872;BME280;2962;51.312;7.378;2023-04-20T12:20:18;97411.03;;;12.18;100.00
5872;BME280;2962;51.312;7.378;2023-04-20T12:22:43;97416.66;;;11.51;100.00
5872;BME280;2962;51.312;7.378;2023-04-20T12:25:09;97424.44;;;11.12;100.00
5872;BME280;2962;51.312;7.378;2023-04-20T12:27:34;97404.47;;;11.04;100.00
5872;BME280;2962;51.312;7.378;2023-04-20T12:30:00;97418.31;;;10.88;100.00
5872;BME280;2962;51.312;7.378;2023-04-20T12:32:25;97420.38;;;10.68;100.00
5872;BME280;2962;51.312;7.378;2023-04-20T12:34:51;97419.00;;;10.82;100.00
5872;BME280;2962;51.312;7.378;2023-04-20T12:37:16;97410.84;;;11.56;100.00
5872;BME280;2962;51.312;7.378;2023-04-20T12:39:41;97416.91;;;11.80;100.00
5872;BME280;2962;51.312;7.378;2023-04-20T12:42:06;97417.19;;;11.27;100.00
5872;BME280;2962;51.312;7.378;2023-04-20T12:44:32;97421.09;;;10.35;100.00
5872;BME280;2962;51.312;7.378;2023-04-20T12:46:57;97428.84;;;10.33;100.00
5872;BME280;2962;51.312;7.378;2023-04-20T12:49:22;97413.00;;;10.16;100.00
5872;BME280;2962;51.312;7.378;2023-04-20T12:51:47;97423.41;;;10.10;100.00
5872;BME280;2962;51.312;7.378;2023-04-20T12:54:13;97424.16;;;10.34;100.00
5872;BME280;2962;51.312;7.378;2023-04-20T12:56:38;97416.53;;;10.43;100.00
5872;BME280;2962;51.312;7.378;2023-04-20T12:59:03;97412.84;;;10.05;100.00
5872;BME280;2962;51.312;7.378;2023-04-20T13:01:28;97426.44;;;10.28;100.00
5872;BME280;2962;51.312;7.378;2023-04-20T13:03:54;97414.28;;;10.79;100.00
5872;BME280;2962;51.312;7.378;2023-04-20T13:06:20;97421.22;;;10.72;100.00
5872;BME280;2962;51.312;7.378;2023-04-20T13:08:45;97423.00;;;12.58;100.00
5872;BME280;2962;51.312;7.378;2023-04-20T13:11:10;97432.44;;;14.05;100.00
5872;BME280;2962;51.312;7.378;2023-04-20T13:13:39;97429.22;;;13.35;100.00
5872;BME280;2962;51.312;7.378;2023-04-20T13:16:04;97424.88;;;11.92;100.00